Hlavní strana
METAR-TAF:

METAR-TAF

Letiště :

Tuktoyaktuk, Severozápadní teritoria, Kanada

zeměpisná šířka: 69-27N, zeměpisná délka: 133-01W, výška: 5 m

Aktuální stav počasí

Zpráva byla vytvořena před 4 hodinami a 13 minutami, v 06:00 UTC
Severoseverovýchodní vítr 4 kt
Teplota -13°C
Vlhkost vzduchu 85%
Tlak 1003 hPa
Viditelnost: 16.1 km
Oblačno až skoro zataženo ve výšce 2500 ft
Zataženo ve výšce 7800 ft
slabé sněžení

METAR: CYUB 190600Z 02004KT 10SM -SN BKN025 OVC078 M13/M15 A2961 RMK SC6AS2 TRACE LOOSE/LAST OBS/NXT 191400UTC SLP028

Čas: 03:13 (10:13 UTC)

Předpověď počasí

Zpráva byla vytvořena před 9 hodinami a 34 minutami, v 00:39 UTC
Předpověď platná od 19 v 01 UTC do 19 v 06 UTC
Severoseverozápadní vítr 5 kt
Viditelnost: 10 km
Zataženo ve výšce 1500 ft
slabé sněžení
Dočasný
od 19 v 01 UTC do 19 v 06 UTC
Viditelnost: 10 km
Polojasno ve výšce 1500 ft
Zataženo ve výšce 7000 ft

TAF: CYUB 190039Z 1901/1906 33005KT P6SM -SN OVC015 TEMPO 1901/1906 P6SM NSW SCT015 OVC070 RMK NXT FCST WILL BE ISSUED AT 191545Z

Stav a předpovědi počasí z více než 4 000 letišť (zprávy METAR a TAF).

Červené a žluté tečky na mapě představují dostupné meteorologické stanice.

Když kurzor umístíte na tečku, zobrazí se název stanice.

Pak kliknutím zobrazíte stav a předpověď počasí.

Chcete-li změnit mapu, kliknutím na zelené tlačítko se znaménkem +mapu přiblížíte, kliknutím na zelené tlačítko se znaménkem – mapu oddálíte a kliknutím na zelené šipky přejdete na sousední mapy.


METAR-TAF: